Mountainhome, PA (18342)

2:30 PM EDT on May 28, 2015 (GMT -0400)
Dogwood Ln | | Change Station
CLOSE
Current Station
Personal Weather Station
Location: Canadensis, PA
Elevation: 1300 ft
Nearby Weather Stations

Elev 1300 ft 41.17 °N, 75.19 °W | Updated 7 seconds ago

Partly Cloudy
Partly Cloudy
85.5 °F
Feels Like 84 °F
N
2.0
Wind Variable Wind from ESE
Gusts 2.9 mph

Today
High -- | Low -- °F
--% Chance of Precip.
Yesterday
High -- | Low -- °F
Precip. -- in
5:32 AM 8:24 PM
Waxing Gibbous, 77% visible
Pressure 30.18 in
Visibility 10.0 miles
Clouds Few 4200 ft
Heat Index 84 °F
Dew Point 56 °F
Humidity 36%
Rainfall 0.00 in
Snow Depth Not available.
UV 11 out of 12
Pollen 8.20 out of 12
Air Quality Not available.
Flu Activity Sporadic
METAR KMPO 281753Z AUTO 27010G16KT 240V300 10SM FEW042 26/15 A3021 RMK AO2 SLP218 T02610150 10261 20217 50000

More Conditions Fewer Conditions

Pressure 30.18 in
Visibility 10.0 miles
Clouds Few 4200 ft
Heat Index 84 °F
Dew Point 56 °F
Humidity 36%
Rainfall 0.00 in
Snow Depth Not available.
UV 11 out of 12
Pollen 8.20 out of 12
Air Quality Not available.
Flu Activity Sporadic
METAR KMPO 281753Z AUTO 27010G16KT 240V300 10SM FEW042 26/15 A3021 RMK AO2 SLP218 T02610150 10261 20217 50000

More Conditions Fewer Conditions

10-Day Weather Forecast

Almanac

Astronomy

May. 28, 2015 Rise Set
Actual Time
Civil Twilight
Nautical Twilight
Astronomical Twilight
Moon
Length of Visible Light
Length of Day
Tomorrow will be .
, % of the Moon is Illuminated

Today's Extremes

State Highs State Lows

Community

WunderPhotos

Upload Photos

1,825,011 photos uploaded!

WunderBlogs® & News

Nearby

Air Quality

  Air Quality AQ Index Pollutant
Not available.

Snow Depth

Station Depth Elevation

Earthquake Activity

City Distance Mag. Time & Date
Minimum magnitude displayed is 2.5.

Coastal Water Temperatures

Place Temperature

Stations

Nearby Weather Stations

Station Location Temp. Windchill Dew Point Humidity Wind Precip. Elev Updated Type